createdAt,value
2022-11-28T00:01:45.051Z,95.60
2022-11-28T00:06:51.210Z,95.52
2022-11-28T00:11:54.141Z,95.63
2022-11-28T00:16:56.906Z,95.34
2022-11-28T00:21:59.808Z,95.96
2022-11-28T00:27:02.603Z,96.02
2022-11-28T00:32:06.246Z,95.66
2022-11-28T00:37:09.060Z,95.97
2022-11-28T00:42:11.911Z,96.03
2022-11-28T00:47:16.159Z,95.85
2022-11-28T00:52:18.953Z,96.13
2022-11-28T00:57:21.709Z,95.85
2022-11-28T01:02:24.648Z,95.82
2022-11-28T01:07:30.832Z,95.98
2022-11-28T01:12:33.692Z,96.05
2022-11-28T01:17:36.809Z,95.94
2022-11-28T01:22:39.911Z,95.89
2022-11-28T01:27:42.677Z,95.98
2022-11-28T01:32:45.461Z,95.94
2022-11-28T01:37:48.195Z,95.85
2022-11-28T01:42:51.050Z,95.74
2022-11-28T01:47:57.784Z,95.88
2022-11-28T01:53:04.528Z,95.84
2022-11-28T01:58:07.313Z,95.90
2022-11-28T02:03:17.856Z,95.50
2022-11-28T02:08:20.609Z,95.54
2022-11-28T02:13:49.185Z,95.72
2022-11-28T02:18:55.787Z,95.44
2022-11-28T02:24:11.935Z,95.36
2022-11-28T02:29:23.700Z,95.28
2022-11-28T02:34:32.629Z,95.30
2022-11-28T02:40:01.070Z,95.03
2022-11-28T02:45:13.177Z,95.08
2022-11-28T02:50:15.944Z,95.05
2022-11-28T02:55:20.389Z,94.75
2022-11-28T03:00:24.204Z,94.58
2022-11-28T03:05:46.429Z,94.51
2022-11-28T03:10:55.230Z,94.33
2022-11-28T03:16:17.891Z,94.15
2022-11-28T03:21:23.673Z,94.48
2022-11-28T03:26:51.279Z,94.28
2022-11-28T03:31:59.283Z,94.08
2022-11-28T03:37:08.747Z,93.87
2022-11-28T03:42:17.018Z,93.95
2022-11-28T03:47:20.310Z,94.09
2022-11-28T03:52:31.677Z,94.11
2022-11-28T03:58:13.304Z,94.18
2022-11-28T04:03:16.132Z,94.08
2022-11-28T04:08:25.229Z,94.03
2022-11-28T04:13:47.089Z,94.12
2022-11-28T04:19:25.534Z,94.07
2022-11-28T04:24:42.361Z,94.41
2022-11-28T04:29:47.883Z,94.91
2022-11-28T04:34:55.342Z,94.48
2022-11-28T04:40:00.578Z,94.81
2022-11-28T04:45:06.937Z,94.90
2022-11-28T04:50:10.462Z,95.00
2022-11-28T04:55:20.722Z,95.04
2022-11-28T05:00:23.463Z,95.08
2022-11-28T05:05:28.497Z,95.15
2022-11-28T05:10:31.300Z,94.80
2022-11-28T05:15:34.155Z,94.78
2022-11-28T05:20:38.454Z,94.78
2022-11-28T05:25:41.404Z,94.61
2022-11-28T05:30:44.169Z,94.21
2022-11-28T05:35:46.934Z,94.62
2022-11-28T05:40:49.735Z,94.63
2022-11-28T05:45:53.937Z,94.64
2022-11-28T05:50:56.705Z,94.67
2022-11-28T05:55:59.896Z,94.83
2022-11-28T06:01:18.115Z,95.36
2022-11-28T06:06:22.297Z,94.70
2022-11-28T06:11:27.321Z,94.74
2022-11-28T06:16:31.823Z,94.95
2022-11-28T06:21:34.943Z,94.91
2022-11-28T06:26:37.814Z,94.79
2022-11-28T06:31:40.724Z,94.98
2022-11-28T06:36:45.247Z,94.94
2022-11-28T06:41:48.526Z,95.18
2022-11-28T06:46:51.514Z,95.33
2022-11-28T06:51:54.384Z,94.90
2022-11-28T06:56:57.207Z,94.23
2022-11-28T07:02:07.778Z,94.61
2022-11-28T07:07:16.153Z,94.91
2022-11-28T07:12:19.584Z,94.70
2022-11-28T07:17:23.200Z,94.87
2022-11-28T07:22:26.123Z,94.79
2022-11-28T07:27:29.048Z,94.62
2022-11-28T07:32:31.894Z,94.14
2022-11-28T07:37:38.111Z,94.46
2022-11-28T07:42:45.372Z,94.61
2022-11-28T07:47:48.746Z,94.59
2022-11-28T07:52:52.248Z,97.30
2022-11-28T07:58:01.349Z,99.08
2022-11-28T08:03:18.092Z,98.89
2022-11-28T08:08:21.269Z,97.82
2022-11-28T08:13:24.069Z,96.89
2022-11-28T08:18:28.160Z,96.12
2022-11-28T08:23:33.578Z,96.18
2022-11-28T08:28:37.137Z,95.59
2022-11-28T08:33:40.843Z,94.02
2022-11-28T08:38:53.455Z,93.34
2022-11-28T08:44:06.234Z,92.18
2022-11-28T08:49:09.161Z,92.38
2022-11-28T08:54:12.594Z,92.09
2022-11-28T08:59:16.054Z,91.73
2022-11-28T09:04:18.982Z,92.41
2022-11-28T09:09:22.080Z,91.56
2022-11-28T09:14:27.089Z,91.62
2022-11-28T09:19:31.810Z,91.16
2022-11-28T09:24:34.736Z,89.74
2022-11-28T09:29:37.544Z,88.96
2022-11-28T09:34:40.457Z,89.20
2022-11-28T09:40:04.865Z,89.53
2022-11-28T09:45:26.841Z,88.16
2022-11-28T09:50:36.514Z,87.80
2022-11-28T09:55:48.316Z,87.95
2022-11-28T10:01:05.623Z,89.20
2022-11-28T10:06:23.491Z,89.06
2022-11-28T10:11:50.620Z,88.40
2022-11-28T10:17:04.378Z,87.63
2022-11-28T10:22:13.628Z,87.32
2022-11-28T10:27:21.291Z,87.04
2022-11-28T10:32:40.675Z,85.57
2022-11-28T10:37:45.777Z,85.47
2022-11-28T10:42:52.091Z,85.08
2022-11-28T10:48:07.429Z,85.10
2022-11-28T10:53:29.923Z,84.67
2022-11-28T10:58:37.316Z,85.68
2022-11-28T11:03:41.065Z,84.92
2022-11-28T11:08:45.698Z,84.28
2022-11-28T11:14:07.106Z,84.83
2022-11-28T11:19:23.579Z,84.95
2022-11-28T11:24:26.722Z,85.08
2022-11-28T11:29:32.870Z,84.24
2022-11-28T11:34:43.124Z,84.75
2022-11-28T11:39:52.249Z,84.14
2022-11-28T11:44:56.548Z,84.22
2022-11-28T11:50:05.452Z,84.45
2022-11-28T11:55:16.859Z,84.57
2022-11-28T12:00:27.785Z,84.52
2022-11-28T12:05:59.375Z,85.08
2022-11-28T12:11:23.620Z,84.45
2022-11-28T12:16:52.308Z,83.86
2022-11-28T12:22:32.041Z,84.90
2022-11-28T12:27:52.710Z,84.13
2022-11-28T12:33:13.954Z,83.25
2022-11-28T12:38:31.322Z,83.60
2022-11-28T12:43:53.019Z,84.32
2022-11-28T12:49:25.826Z,85.70
2022-11-28T12:55:01.485Z,85.06
2022-11-28T13:00:09.564Z,85.33
2022-11-28T13:05:31.644Z,84.81
2022-11-28T13:11:18.716Z,84.66
2022-11-28T13:16:49.184Z,84.72
2022-11-28T13:22:23.673Z,85.26
2022-11-28T13:28:00.976Z,85.11
2022-11-28T13:33:28.418Z,84.76
2022-11-28T13:39:13.403Z,84.38
2022-11-28T13:44:24.366Z,84.63
2022-11-28T13:49:29.770Z,84.67
2022-11-28T13:54:32.731Z,84.15
2022-11-28T13:59:37.289Z,82.10
2022-11-28T14:04:44.437Z,81.87
2022-11-28T14:09:53.791Z,82.40
2022-11-28T14:15:22.732Z,83.12
2022-11-28T14:20:43.052Z,83.67
2022-11-28T14:25:48.666Z,83.96
2022-11-28T14:31:00.216Z,84.37
2022-11-28T14:36:29.632Z,84.92
2022-11-28T14:41:32.696Z,85.03
2022-11-28T14:46:35.829Z,85.48
2022-11-28T14:51:47.977Z,85.48
2022-11-28T14:56:56.675Z,85.93
2022-11-28T15:02:11.207Z,86.07
2022-11-28T15:07:59.636Z,86.34
2022-11-28T15:13:05.322Z,86.26
2022-11-28T15:18:11.582Z,86.58
2022-11-28T15:23:25.714Z,86.81
2022-11-28T15:28:32.335Z,86.79
2022-11-28T15:33:35.233Z,87.13
2022-11-28T15:38:42.088Z,87.37
2022-11-28T15:43:45.947Z,87.64
2022-11-28T15:48:51.262Z,87.76
2022-11-28T15:53:55.406Z,88.19
2022-11-28T15:58:58.220Z,88.67
2022-11-28T16:04:15.503Z,88.77
2022-11-28T16:09:18.294Z,88.91
2022-11-28T16:14:27.206Z,89.17
2022-11-28T16:19:34.698Z,89.31
2022-11-28T16:24:55.575Z,89.64
2022-11-28T16:29:58.617Z,89.61
2022-11-28T16:35:03.451Z,90.09
2022-11-28T16:40:06.738Z,90.23
2022-11-28T16:45:20.715Z,90.34
2022-11-28T16:50:25.357Z,90.72
2022-11-28T16:55:32.363Z,90.74
2022-11-28T17:00:35.795Z,90.57
2022-11-28T17:05:38.629Z,90.67
2022-11-28T17:10:41.644Z,91.22
2022-11-28T17:15:44.592Z,91.47
2022-11-28T17:20:47.718Z,91.53
2022-11-28T17:25:53.234Z,91.65
2022-11-28T17:30:56.115Z,91.67
2022-11-28T17:36:00.478Z,91.77
2022-11-28T17:41:03.560Z,91.75
2022-11-28T17:46:06.633Z,91.90
2022-11-28T17:51:10.577Z,91.96
2022-11-28T17:56:13.700Z,91.94
2022-11-28T18:01:26.889Z,91.99
2022-11-28T18:06:30.074Z,92.32
2022-11-28T18:11:33.024Z,92.07
2022-11-28T18:16:36.241Z,92.10
2022-11-28T18:21:39.380Z,91.83
2022-11-28T18:26:42.202Z,91.83
2022-11-28T18:31:45.181Z,91.95
2022-11-28T18:36:47.988Z,91.87
2022-11-28T18:41:50.919Z,91.92
2022-11-28T18:46:53.749Z,92.13
2022-11-28T18:51:57.056Z,91.92
2022-11-28T18:57:00.222Z,91.71
2022-11-28T19:02:03.191Z,91.74
2022-11-28T19:07:06.075Z,91.76
2022-11-28T19:12:08.868Z,91.78
2022-11-28T19:17:12.267Z,91.76
2022-11-28T19:22:15.040Z,91.70
2022-11-28T19:27:18.001Z,91.59
2022-11-28T19:32:21.346Z,91.69
2022-11-28T19:37:24.209Z,91.75
2022-11-28T19:42:27.183Z,91.94
2022-11-28T19:47:29.989Z,92.08
2022-11-28T19:52:32.966Z,92.23
2022-11-28T19:57:37.420Z,91.93
2022-11-28T20:02:40.436Z,91.92
2022-11-28T20:07:43.582Z,91.88
2022-11-28T20:12:46.385Z,91.71
2022-11-28T20:17:49.377Z,91.74
2022-11-28T20:22:52.340Z,91.59
2022-11-28T20:27:55.229Z,91.54
2022-11-28T20:32:58.037Z,91.67
2022-11-28T20:38:00.784Z,91.34
2022-11-28T20:43:03.547Z,91.23
2022-11-28T20:48:06.396Z,90.98
2022-11-28T20:53:09.208Z,91.05
2022-11-28T20:58:12.109Z,91.04
2022-11-28T21:03:14.903Z,90.93
2022-11-28T21:08:17.756Z,91.09
2022-11-28T21:13:20.489Z,90.80
2022-11-28T21:18:23.291Z,90.71
2022-11-28T21:23:26.336Z,90.46
2022-11-28T21:28:29.136Z,90.46
2022-11-28T21:33:32.049Z,90.61
2022-11-28T21:38:35.610Z,90.72
2022-11-28T21:43:39.226Z,90.13
2022-11-28T21:48:42.397Z,89.94
2022-11-28T21:53:45.591Z,90.18
2022-11-28T21:58:48.422Z,90.14
2022-11-28T22:03:51.319Z,89.64
2022-11-28T22:08:54.784Z,89.67
2022-11-28T22:13:57.632Z,89.41
2022-11-28T22:19:00.836Z,89.36
2022-11-28T22:24:04.038Z,89.17
2022-11-28T22:29:07.144Z,89.32
2022-11-28T22:34:10.259Z,89.39
2022-11-28T22:39:13.464Z,89.29
2022-11-28T22:44:16.419Z,89.20
2022-11-28T22:49:24.663Z,89.00
2022-11-28T22:54:27.485Z,89.08
2022-11-28T22:59:34.161Z,89.04
2022-11-28T23:04:38.494Z,88.42
2022-11-28T23:09:41.951Z,88.65
2022-11-28T23:14:48.888Z,88.23
2022-11-28T23:19:51.900Z,87.81
2022-11-28T23:24:54.678Z,87.99
2022-11-28T23:29:57.603Z,87.70
2022-11-28T23:35:01.183Z,87.47
2022-11-28T23:40:04.307Z,87.78
2022-11-28T23:45:07.904Z,87.97
2022-11-28T23:50:10.953Z,87.81
2022-11-28T23:55:13.725Z,87.76
